sensor_id;sensor_type;location;lat;lon;timestamp;P1;durP1;ratioP1;P2;durP2;ratioP2
67665;SDS011;54448;51.472;-2.574;2022-07-29T00:01:30;11.88;;;4.65;;
67665;SDS011;54448;51.472;-2.574;2022-07-29T00:03:55;13.98;;;4.97;;
67665;SDS011;54448;51.472;-2.574;2022-07-29T00:06:21;13.50;;;5.25;;
67665;SDS011;54448;51.472;-2.574;2022-07-29T00:08:46;10.63;;;4.90;;
67665;SDS011;54448;51.472;-2.574;2022-07-29T00:11:12;13.55;;;5.15;;
67665;SDS011;54448;51.472;-2.574;2022-07-29T00:13:37;13.50;;;4.90;;
67665;SDS011;54448;51.472;-2.574;2022-07-29T00:16:03;10.93;;;5.10;;
67665;SDS011;54448;51.472;-2.574;2022-07-29T00:18:28;9.25;;;4.65;;
67665;SDS011;54448;51.472;-2.574;2022-07-29T00:20:54;14.63;;;4.13;;
67665;SDS011;54448;51.472;-2.574;2022-07-29T00:23:19;9.77;;;4.50;;
67665;SDS011;54448;51.472;-2.574;2022-07-29T00:25:45;12.52;;;5.60;;
67665;SDS011;54448;51.472;-2.574;2022-07-29T00:28:10;12.73;;;4.97;;
67665;SDS011;54448;51.472;-2.574;2022-07-29T00:30:35;15.02;;;4.82;;
67665;SDS011;54448;51.472;-2.574;2022-07-29T00:33:01;13.07;;;5.30;;
67665;SDS011;54448;51.472;-2.574;2022-07-29T00:35:26;21.08;;;5.30;;
67665;SDS011;54448;51.472;-2.574;2022-07-29T00:38:11;10.95;;;4.57;;
67665;SDS011;54448;51.472;-2.574;2022-07-29T00:40:40;13.63;;;4.63;;
67665;SDS011;54448;51.472;-2.574;2022-07-29T00:43:06;11.55;;;4.60;;
67665;SDS011;54448;51.472;-2.574;2022-07-29T00:45:31;13.77;;;4.45;;
67665;SDS011;54448;51.472;-2.574;2022-07-29T00:47:57;13.52;;;5.13;;
67665;SDS011;54448;51.472;-2.574;2022-07-29T00:50:22;12.27;;;5.28;;
67665;SDS011;54448;51.472;-2.574;2022-07-29T00:52:48;11.82;;;5.20;;
67665;SDS011;54448;51.472;-2.574;2022-07-29T00:55:14;18.55;;;5.75;;
67665;SDS011;54448;51.472;-2.574;2022-07-29T00:57:41;12.45;;;4.82;;
67665;SDS011;54448;51.472;-2.574;2022-07-29T01:00:09;8.30;;;4.85;;
67665;SDS011;54448;51.472;-2.574;2022-07-29T01:02:36;20.52;;;5.32;;
67665;SDS011;54448;51.472;-2.574;2022-07-29T01:05:02;14.18;;;5.22;;
67665;SDS011;54448;51.472;-2.574;2022-07-29T01:07:29;7.65;;;4.97;;
67665;SDS011;54448;51.472;-2.574;2022-07-29T01:09:55;12.88;;;5.40;;
67665;SDS011;54448;51.472;-2.574;2022-07-29T01:12:24;15.60;;;5.72;;
67665;SDS011;54448;51.472;-2.574;2022-07-29T01:14:51;10.52;;;5.78;;
67665;SDS011;54448;51.472;-2.574;2022-07-29T01:31:02;12.85;;;5.40;;
67665;SDS011;54448;51.472;-2.574;2022-07-29T01:33:29;13.68;;;5.50;;
67665;SDS011;54448;51.472;-2.574;2022-07-29T01:36:14;10.50;;;5.80;;
67665;SDS011;54448;51.472;-2.574;2022-07-29T01:38:45;12.55;;;5.40;;
67665;SDS011;54448;51.472;-2.574;2022-07-29T01:41:27;14.15;;;5.60;;
67665;SDS011;54448;51.472;-2.574;2022-07-29T01:44:01;16.65;;;5.97;;
67665;SDS011;54448;51.472;-2.574;2022-07-29T01:46:31;12.80;;;5.63;;
67665;SDS011;54448;51.472;-2.574;2022-07-29T01:49:02;14.65;;;5.60;;
67665;SDS011;54448;51.472;-2.574;2022-07-29T01:51:36;14.35;;;6.35;;
67665;SDS011;54448;51.472;-2.574;2022-07-29T01:54:42;20.52;;;6.25;;
67665;SDS011;54448;51.472;-2.574;2022-07-29T01:57:11;12.63;;;6.32;;
67665;SDS011;54448;51.472;-2.574;2022-07-29T01:59:38;12.23;;;5.70;;
67665;SDS011;54448;51.472;-2.574;2022-07-29T02:02:06;14.10;;;5.43;;
67665;SDS011;54448;51.472;-2.574;2022-07-29T02:04:33;13.82;;;5.70;;
67665;SDS011;54448;51.472;-2.574;2022-07-29T02:07:01;10.85;;;5.70;;
67665;SDS011;54448;51.472;-2.574;2022-07-29T02:09:30;14.50;;;5.70;;
67665;SDS011;54448;51.472;-2.574;2022-07-29T02:11:59;10.27;;;5.30;;
67665;SDS011;54448;51.472;-2.574;2022-07-29T02:14:26;10.32;;;4.93;;
67665;SDS011;54448;51.472;-2.574;2022-07-29T02:16:54;14.15;;;5.82;;
67665;SDS011;54448;51.472;-2.574;2022-07-29T02:19:21;17.73;;;5.53;;
67665;SDS011;54448;51.472;-2.574;2022-07-29T02:21:47;15.40;;;6.15;;
67665;SDS011;54448;51.472;-2.574;2022-07-29T02:24:13;10.13;;;5.57;;
67665;SDS011;54448;51.472;-2.574;2022-07-29T02:26:39;13.15;;;5.82;;
67665;SDS011;54448;51.472;-2.574;2022-07-29T02:29:05;15.50;;;5.47;;
67665;SDS011;54448;51.472;-2.574;2022-07-29T02:31:32;10.35;;;6.00;;
67665;SDS011;54448;51.472;-2.574;2022-07-29T02:33:58;10.43;;;5.82;;
67665;SDS011;54448;51.472;-2.574;2022-07-29T02:36:25;12.77;;;6.40;;
67665;SDS011;54448;51.472;-2.574;2022-07-29T02:38:51;15.02;;;7.75;;
67665;SDS011;54448;51.472;-2.574;2022-07-29T02:41:28;14.15;;;6.38;;
67665;SDS011;54448;51.472;-2.574;2022-07-29T02:43:58;21.75;;;6.30;;
67665;SDS011;54448;51.472;-2.574;2022-07-29T02:46:30;11.77;;;6.95;;
67665;SDS011;54448;51.472;-2.574;2022-07-29T02:48:59;11.18;;;6.20;;
67665;SDS011;54448;51.472;-2.574;2022-07-29T02:51:34;12.55;;;6.40;;
67665;SDS011;54448;51.472;-2.574;2022-07-29T02:54:08;14.25;;;6.43;;
67665;SDS011;54448;51.472;-2.574;2022-07-29T02:56:35;17.73;;;7.20;;
67665;SDS011;54448;51.472;-2.574;2022-07-29T02:59:04;16.00;;;6.85;;
67665;SDS011;54448;51.472;-2.574;2022-07-29T03:01:33;17.98;;;8.30;;
67665;SDS011;54448;51.472;-2.574;2022-07-29T03:04:01;17.20;;;7.05;;
67665;SDS011;54448;51.472;-2.574;2022-07-29T03:06:28;18.73;;;7.18;;
67665;SDS011;54448;51.472;-2.574;2022-07-29T03:08:55;15.38;;;6.75;;
67665;SDS011;54448;51.472;-2.574;2022-07-29T03:11:22;16.17;;;6.78;;
67665;SDS011;54448;51.472;-2.574;2022-07-29T03:13:48;17.38;;;7.65;;
67665;SDS011;54448;51.472;-2.574;2022-07-29T03:16:14;18.45;;;6.40;;
67665;SDS011;54448;51.472;-2.574;2022-07-29T03:18:39;16.95;;;6.90;;
67665;SDS011;54448;51.472;-2.574;2022-07-29T03:21:05;12.73;;;7.47;;
67665;SDS011;54448;51.472;-2.574;2022-07-29T03:23:30;14.07;;;6.32;;
67665;SDS011;54448;51.472;-2.574;2022-07-29T03:25:56;13.50;;;6.38;;
67665;SDS011;54448;51.472;-2.574;2022-07-29T03:28:21;17.15;;;6.90;;
67665;SDS011;54448;51.472;-2.574;2022-07-29T03:30:48;11.73;;;6.38;;
67665;SDS011;54448;51.472;-2.574;2022-07-29T03:33:13;12.32;;;6.45;;
67665;SDS011;54448;51.472;-2.574;2022-07-29T03:35:39;13.38;;;6.47;;
67665;SDS011;54448;51.472;-2.574;2022-07-29T03:38:05;18.80;;;8.35;;
67665;SDS011;54448;51.472;-2.574;2022-07-29T03:40:44;16.83;;;7.63;;
67665;SDS011;54448;51.472;-2.574;2022-07-29T03:43:21;17.55;;;7.63;;
67665;SDS011;54448;51.472;-2.574;2022-07-29T03:45:49;15.18;;;7.43;;
67665;SDS011;54448;51.472;-2.574;2022-07-29T03:48:17;21.75;;;8.15;;
67665;SDS011;54448;51.472;-2.574;2022-07-29T03:50:46;16.73;;;8.07;;
67665;SDS011;54448;51.472;-2.574;2022-07-29T03:53:11;13.18;;;6.70;;
67665;SDS011;54448;51.472;-2.574;2022-07-29T03:55:40;13.45;;;7.80;;
67665;SDS011;54448;51.472;-2.574;2022-07-29T03:58:07;16.80;;;6.70;;
67665;SDS011;54448;51.472;-2.574;2022-07-29T04:00:33;14.57;;;7.07;;
67665;SDS011;54448;51.472;-2.574;2022-07-29T04:03:00;18.33;;;6.97;;
67665;SDS011;54448;51.472;-2.574;2022-07-29T04:05:26;15.70;;;7.18;;
67665;SDS011;54448;51.472;-2.574;2022-07-29T04:07:51;15.27;;;6.50;;
67665;SDS011;54448;51.472;-2.574;2022-07-29T04:10:17;15.50;;;6.90;;
67665;SDS011;54448;51.472;-2.574;2022-07-29T04:12:46;14.52;;;8.40;;
67665;SDS011;54448;51.472;-2.574;2022-07-29T04:15:11;21.58;;;7.80;;
67665;SDS011;54448;51.472;-2.574;2022-07-29T04:17:37;14.48;;;7.50;;
67665;SDS011;54448;51.472;-2.574;2022-07-29T04:20:03;13.40;;;7.05;;
67665;SDS011;54448;51.472;-2.574;2022-07-29T04:22:29;11.00;;;6.65;;
67665;SDS011;54448;51.472;-2.574;2022-07-29T04:24:54;15.82;;;6.72;;
67665;SDS011;54448;51.472;-2.574;2022-07-29T04:27:19;14.50;;;7.70;;
67665;SDS011;54448;51.472;-2.574;2022-07-29T04:29:45;14.93;;;7.68;;
67665;SDS011;54448;51.472;-2.574;2022-07-29T04:32:10;14.75;;;6.97;;
67665;SDS011;54448;51.472;-2.574;2022-07-29T04:34:35;19.90;;;7.90;;
67665;SDS011;54448;51.472;-2.574;2022-07-29T04:37:01;18.77;;;7.47;;
67665;SDS011;54448;51.472;-2.574;2022-07-29T04:39:26;21.45;;;7.90;;
67665;SDS011;54448;51.472;-2.574;2022-07-29T04:41:52;15.93;;;7.93;;
67665;SDS011;54448;51.472;-2.574;2022-07-29T04:44:17;17.90;;;8.15;;
67665;SDS011;54448;51.472;-2.574;2022-07-29T04:46:43;19.38;;;7.90;;
67665;SDS011;54448;51.472;-2.574;2022-07-29T04:49:08;17.90;;;7.97;;
67665;SDS011;54448;51.472;-2.574;2022-07-29T04:51:34;26.20;;;9.60;;
67665;SDS011;54448;51.472;-2.574;2022-07-29T04:53:59;46.33;;;12.40;;
67665;SDS011;54448;51.472;-2.574;2022-07-29T04:56:25;42.65;;;10.85;;
67665;SDS011;54448;51.472;-2.574;2022-07-29T04:58:51;32.95;;;11.35;;
67665;SDS011;54448;51.472;-2.574;2022-07-29T05:01:16;28.55;;;9.60;;
67665;SDS011;54448;51.472;-2.574;2022-07-29T05:03:41;20.17;;;10.63;;
67665;SDS011;54448;51.472;-2.574;2022-07-29T05:06:07;19.88;;;10.02;;
67665;SDS011;54448;51.472;-2.574;2022-07-29T05:08:32;24.77;;;10.48;;
67665;SDS011;54448;51.472;-2.574;2022-07-29T05:10:58;25.02;;;10.43;;
67665;SDS011;54448;51.472;-2.574;2022-07-29T05:13:23;20.40;;;9.88;;
67665;SDS011;54448;51.472;-2.574;2022-07-29T05:15:48;17.92;;;9.00;;
67665;SDS011;54448;51.472;-2.574;2022-07-29T05:18:14;21.73;;;10.73;;
67665;SDS011;54448;51.472;-2.574;2022-07-29T05:20:40;26.45;;;10.80;;
67665;SDS011;54448;51.472;-2.574;2022-07-29T05:23:06;23.63;;;9.80;;
67665;SDS011;54448;51.472;-2.574;2022-07-29T05:25:31;23.58;;;9.60;;
67665;SDS011;54448;51.472;-2.574;2022-07-29T05:27:57;24.35;;;10.77;;
67665;SDS011;54448;51.472;-2.574;2022-07-29T05:30:22;26.20;;;8.25;;
67665;SDS011;54448;51.472;-2.574;2022-07-29T05:32:48;21.90;;;8.82;;
67665;SDS011;54448;51.472;-2.574;2022-07-29T05:35:14;23.80;;;9.07;;
67665;SDS011;54448;51.472;-2.574;2022-07-29T05:37:40;26.15;;;8.95;;
67665;SDS011;54448;51.472;-2.574;2022-07-29T05:40:05;25.15;;;8.25;;
67665;SDS011;54448;51.472;-2.574;2022-07-29T05:42:31;19.65;;;8.40;;
67665;SDS011;54448;51.472;-2.574;2022-07-29T05:44:57;18.10;;;7.60;;
67665;SDS011;54448;51.472;-2.574;2022-07-29T05:47:23;21.63;;;7.57;;
67665;SDS011;54448;51.472;-2.574;2022-07-29T05:49:49;17.05;;;8.02;;
67665;SDS011;54448;51.472;-2.574;2022-07-29T05:52:15;17.58;;;8.25;;
67665;SDS011;54448;51.472;-2.574;2022-07-29T05:54:41;17.20;;;7.82;;
67665;SDS011;54448;51.472;-2.574;2022-07-29T05:57:06;25.27;;;7.93;;
67665;SDS011;54448;51.472;-2.574;2022-07-29T05:59:35;14.70;;;7.90;;
67665;SDS011;54448;51.472;-2.574;2022-07-29T06:02:01;85.97;;;12.55;;
67665;SDS011;54448;51.472;-2.574;2022-07-29T06:04:27;23.42;;;7.95;;
67665;SDS011;54448;51.472;-2.574;2022-07-29T06:06:53;29.00;;;7.78;;
67665;SDS011;54448;51.472;-2.574;2022-07-29T06:09:18;14.93;;;7.40;;
67665;SDS011;54448;51.472;-2.574;2022-07-29T06:11:44;12.27;;;6.97;;
67665;SDS011;54448;51.472;-2.574;2022-07-29T06:14:09;15.43;;;7.93;;
67665;SDS011;54448;51.472;-2.574;2022-07-29T06:16:35;16.88;;;7.07;;
67665;SDS011;54448;51.472;-2.574;2022-07-29T06:19:00;13.95;;;6.82;;
67665;SDS011;54448;51.472;-2.574;2022-07-29T06:21:26;18.13;;;6.22;;
67665;SDS011;54448;51.472;-2.574;2022-07-29T06:23:51;15.90;;;6.40;;
67665;SDS011;54448;51.472;-2.574;2022-07-29T06:26:16;13.13;;;6.03;;
67665;SDS011;54448;51.472;-2.574;2022-07-29T06:28:42;15.50;;;6.28;;
67665;SDS011;54448;51.472;-2.574;2022-07-29T06:31:07;21.45;;;7.55;;
67665;SDS011;54448;51.472;-2.574;2022-07-29T06:33:33;25.92;;;6.68;;
67665;SDS011;54448;51.472;-2.574;2022-07-29T06:35:58;21.67;;;6.32;;
67665;SDS011;54448;51.472;-2.574;2022-07-29T06:38:24;18.13;;;6.18;;
67665;SDS011;54448;51.472;-2.574;2022-07-29T06:40:50;14.20;;;5.82;;
67665;SDS011;54448;51.472;-2.574;2022-07-29T06:43:33;12.80;;;5.60;;
67665;SDS011;54448;51.472;-2.574;2022-07-29T06:46:03;16.25;;;5.60;;
67665;SDS011;54448;51.472;-2.574;2022-07-29T06:48:29;13.68;;;5.35;;
67665;SDS011;54448;51.472;-2.574;2022-07-29T06:50:55;16.88;;;5.78;;
67665;SDS011;54448;51.472;-2.574;2022-07-29T06:53:20;16.33;;;5.80;;
67665;SDS011;54448;51.472;-2.574;2022-07-29T06:55:46;13.50;;;5.03;;
67665;SDS011;54448;51.472;-2.574;2022-07-29T06:58:12;20.30;;;4.90;;
67665;SDS011;54448;51.472;-2.574;2022-07-29T07:00:39;15.15;;;4.55;;
67665;SDS011;54448;51.472;-2.574;2022-07-29T07:03:04;16.65;;;5.63;;
67665;SDS011;54448;51.472;-2.574;2022-07-29T07:05:30;17.27;;;5.00;;
67665;SDS011;54448;51.472;-2.574;2022-07-29T07:07:55;16.42;;;4.30;;
67665;SDS011;54448;51.472;-2.574;2022-07-29T07:10:20;11.85;;;4.13;;
67665;SDS011;54448;51.472;-2.574;2022-07-29T07:12:46;23.30;;;4.45;;
67665;SDS011;54448;51.472;-2.574;2022-07-29T07:15:11;15.07;;;3.95;;
67665;SDS011;54448;51.472;-2.574;2022-07-29T07:17:37;20.02;;;4.05;;
67665;SDS011;54448;51.472;-2.574;2022-07-29T07:20:03;15.18;;;5.20;;
67665;SDS011;54448;51.472;-2.574;2022-07-29T07:22:29;17.88;;;3.70;;
67665;SDS011;54448;51.472;-2.574;2022-07-29T07:24:55;13.35;;;3.30;;
67665;SDS011;54448;51.472;-2.574;2022-07-29T07:27:20;19.13;;;4.05;;
67665;SDS011;54448;51.472;-2.574;2022-07-29T07:29:46;14.65;;;3.53;;
67665;SDS011;54448;51.472;-2.574;2022-07-29T07:32:11;12.60;;;3.10;;
67665;SDS011;54448;51.472;-2.574;2022-07-29T07:34:38;15.48;;;4.00;;
67665;SDS011;54448;51.472;-2.574;2022-07-29T07:37:03;11.02;;;3.67;;
67665;SDS011;54448;51.472;-2.574;2022-07-29T07:39:29;10.65;;;3.30;;
67665;SDS011;54448;51.472;-2.574;2022-07-29T07:41:55;15.02;;;3.75;;
67665;SDS011;54448;51.472;-2.574;2022-07-29T07:44:20;8.35;;;2.72;;
67665;SDS011;54448;51.472;-2.574;2022-07-29T07:46:45;10.82;;;3.13;;
67665;SDS011;54448;51.472;-2.574;2022-07-29T07:49:11;12.95;;;2.92;;
67665;SDS011;54448;51.472;-2.574;2022-07-29T07:51:36;17.83;;;3.22;;
67665;SDS011;54448;51.472;-2.574;2022-07-29T07:54:02;8.45;;;3.03;;
67665;SDS011;54448;51.472;-2.574;2022-07-29T07:56:27;16.17;;;3.15;;
67665;SDS011;54448;51.472;-2.574;2022-07-29T07:58:53;12.40;;;3.10;;
67665;SDS011;54448;51.472;-2.574;2022-07-29T08:01:18;13.15;;;3.40;;
67665;SDS011;54448;51.472;-2.574;2022-07-29T08:03:46;5.78;;;2.60;;
67665;SDS011;54448;51.472;-2.574;2022-07-29T08:06:11;9.20;;;2.80;;
67665;SDS011;54448;51.472;-2.574;2022-07-29T08:08:37;20.83;;;3.67;;
67665;SDS011;54448;51.472;-2.574;2022-07-29T08:11:02;7.97;;;2.90;;
67665;SDS011;54448;51.472;-2.574;2022-07-29T08:13:28;12.95;;;3.20;;
67665;SDS011;54448;51.472;-2.574;2022-07-29T08:15:55;9.88;;;2.70;;
67665;SDS011;54448;51.472;-2.574;2022-07-29T08:18:25;15.55;;;2.67;;
67665;SDS011;54448;51.472;-2.574;2022-07-29T08:20:51;17.30;;;3.30;;
67665;SDS011;54448;51.472;-2.574;2022-07-29T08:23:17;11.27;;;3.30;;
67665;SDS011;54448;51.472;-2.574;2022-07-29T08:25:44;12.75;;;2.72;;
67665;SDS011;54448;51.472;-2.574;2022-07-29T08:28:09;13.15;;;3.60;;
67665;SDS011;54448;51.472;-2.574;2022-07-29T08:30:35;12.43;;;3.20;;
67665;SDS011;54448;51.472;-2.574;2022-07-29T08:33:00;10.20;;;2.80;;
67665;SDS011;54448;51.472;-2.574;2022-07-29T08:35:26;9.77;;;3.47;;
67665;SDS011;54448;51.472;-2.574;2022-07-29T08:37:52;9.25;;;2.60;;
67665;SDS011;54448;51.472;-2.574;2022-07-29T08:40:19;10.55;;;2.97;;
67665;SDS011;54448;51.472;-2.574;2022-07-29T08:42:45;9.95;;;2.78;;
67665;SDS011;54448;51.472;-2.574;2022-07-29T08:45:12;13.98;;;3.20;;
67665;SDS011;54448;51.472;-2.574;2022-07-29T08:47:38;19.98;;;4.00;;
67665;SDS011;54448;51.472;-2.574;2022-07-29T08:50:07;12.20;;;3.25;;
67665;SDS011;54448;51.472;-2.574;2022-07-29T08:52:35;13.32;;;3.38;;
67665;SDS011;54448;51.472;-2.574;2022-07-29T08:55:02;11.95;;;2.88;;
67665;SDS011;54448;51.472;-2.574;2022-07-29T08:57:27;24.35;;;3.60;;
67665;SDS011;54448;51.472;-2.574;2022-07-29T08:59:54;14.07;;;3.40;;
67665;SDS011;54448;51.472;-2.574;2022-07-29T09:02:20;14.60;;;3.35;;
67665;SDS011;54448;51.472;-2.574;2022-07-29T09:04:46;14.23;;;3.20;;
67665;SDS011;54448;51.472;-2.574;2022-07-29T09:07:14;14.82;;;3.78;;
67665;SDS011;54448;51.472;-2.574;2022-07-29T09:09:41;10.93;;;2.92;;
67665;SDS011;54448;51.472;-2.574;2022-07-29T09:12:07;28.00;;;3.75;;
67665;SDS011;54448;51.472;-2.574;2022-07-29T09:14:33;23.52;;;5.38;;
67665;SDS011;54448;51.472;-2.574;2022-07-29T09:16:59;20.75;;;4.10;;
67665;SDS011;54448;51.472;-2.574;2022-07-29T09:19:32;28.73;;;3.70;;
67665;SDS011;54448;51.472;-2.574;2022-07-29T09:22:03;13.93;;;3.53;;
67665;SDS011;54448;51.472;-2.574;2022-07-29T09:26:59;19.25;;;3.15;;
67665;SDS011;54448;51.472;-2.574;2022-07-29T09:29:24;18.58;;;3.53;;
67665;SDS011;54448;51.472;-2.574;2022-07-29T09:31:51;13.50;;;3.08;;
67665;SDS011;54448;51.472;-2.574;2022-07-29T09:34:21;12.10;;;3.30;;
67665;SDS011;54448;51.472;-2.574;2022-07-29T09:36:52;10.10;;;3.05;;
67665;SDS011;54448;51.472;-2.574;2022-07-29T09:39:34;49.55;;;4.57;;
67665;SDS011;54448;51.472;-2.574;2022-07-29T09:42:02;17.98;;;3.90;;
67665;SDS011;54448;51.472;-2.574;2022-07-29T09:44:43;12.10;;;3.08;;
67665;SDS011;54448;51.472;-2.574;2022-07-29T09:47:13;12.10;;;2.97;;
67665;SDS011;54448;51.472;-2.574;2022-07-29T09:49:52;13.60;;;2.97;;
67665;SDS011;54448;51.472;-2.574;2022-07-29T09:52:19;12.88;;;3.20;;
67665;SDS011;54448;51.472;-2.574;2022-07-29T09:54:45;8.35;;;2.60;;
67665;SDS011;54448;51.472;-2.574;2022-07-29T09:57:21;18.88;;;3.55;;
67665;SDS011;54448;51.472;-2.574;2022-07-29T10:00:02;51.28;;;4.97;;
67665;SDS011;54448;51.472;-2.574;2022-07-29T10:02:32;13.30;;;3.10;;
67665;SDS011;54448;51.472;-2.574;2022-07-29T10:04:59;9.40;;;2.70;;
67665;SDS011;54448;51.472;-2.574;2022-07-29T10:07:25;17.92;;;3.50;;
67665;SDS011;54448;51.472;-2.574;2022-07-29T10:09:54;15.88;;;4.13;;
67665;SDS011;54448;51.472;-2.574;2022-07-29T10:12:22;10.95;;;3.00;;
67665;SDS011;54448;51.472;-2.574;2022-07-29T10:14:48;7.82;;;2.85;;
67665;SDS011;54448;51.472;-2.574;2022-07-29T10:17:14;10.90;;;3.13;;
67665;SDS011;54448;51.472;-2.574;2022-07-29T10:19:40;10.65;;;3.33;;
67665;SDS011;54448;51.472;-2.574;2022-07-29T10:22:08;11.18;;;3.20;;
67665;SDS011;54448;51.472;-2.574;2022-07-29T10:24:35;13.38;;;3.53;;
67665;SDS011;54448;51.472;-2.574;2022-07-29T10:27:02;13.20;;;3.40;;
67665;SDS011;54448;51.472;-2.574;2022-07-29T10:29:30;16.85;;;3.58;;
67665;SDS011;54448;51.472;-2.574;2022-07-29T10:32:17;11.98;;;3.10;;
67665;SDS011;54448;51.472;-2.574;2022-07-29T10:42:54;14.55;;;2.88;;
67665;SDS011;54448;51.472;-2.574;2022-07-29T10:45:20;10.90;;;2.80;;
67665;SDS011;54448;51.472;-2.574;2022-07-29T10:47:46;6.53;;;2.50;;
67665;SDS011;54448;51.472;-2.574;2022-07-29T10:50:12;21.33;;;4.57;;
67665;SDS011;54448;51.472;-2.574;2022-07-29T10:52:51;8.38;;;2.95;;
67665;SDS011;54448;51.472;-2.574;2022-07-29T10:55:31;9.02;;;2.53;;
67665;SDS011;54448;51.472;-2.574;2022-07-29T11:00:36;12.43;;;3.47;;
67665;SDS011;54448;51.472;-2.574;2022-07-29T11:03:01;12.68;;;2.50;;
67665;SDS011;54448;51.472;-2.574;2022-07-29T11:05:27;9.85;;;2.65;;
67665;SDS011;54448;51.472;-2.574;2022-07-29T11:13:04;9.00;;;2.78;;
67665;SDS011;54448;51.472;-2.574;2022-07-29T11:15:32;14.95;;;3.10;;
67665;SDS011;54448;51.472;-2.574;2022-07-29T11:18:22;13.15;;;2.95;;
67665;SDS011;54448;51.472;-2.574;2022-07-29T11:20:48;14.30;;;2.58;;
67665;SDS011;54448;51.472;-2.574;2022-07-29T11:23:19;11.80;;;2.90;;
67665;SDS011;54448;51.472;-2.574;2022-07-29T11:25:45;10.27;;;2.75;;
67665;SDS011;54448;51.472;-2.574;2022-07-29T11:28:31;12.45;;;3.35;;
67665;SDS011;54448;51.472;-2.574;2022-07-29T11:30:57;10.25;;;2.85;;
67665;SDS011;54448;51.472;-2.574;2022-07-29T11:33:33;10.27;;;3.22;;
67665;SDS011;54448;51.472;-2.574;2022-07-29T11:38:35;6.85;;;2.85;;
67665;SDS011;54448;51.472;-2.574;2022-07-29T11:43:59;16.30;;;3.10;;
67665;SDS011;54448;51.472;-2.574;2022-07-29T11:46:47;10.85;;;2.60;;
67665;SDS011;54448;51.472;-2.574;2022-07-29T11:49:20;8.68;;;2.67;;
67665;SDS011;54448;51.472;-2.574;2022-07-29T11:51:50;6.68;;;2.85;;
67665;SDS011;54448;51.472;-2.574;2022-07-29T11:54:16;6.38;;;2.75;;
67665;SDS011;54448;51.472;-2.574;2022-07-29T11:56:49;13.63;;;2.85;;
67665;SDS011;54448;51.472;-2.574;2022-07-29T11:59:15;11.93;;;2.40;;
67665;SDS011;54448;51.472;-2.574;2022-07-29T12:01:57;8.50;;;2.28;;
67665;SDS011;54448;51.472;-2.574;2022-07-29T12:04:24;7.15;;;2.50;;
67665;SDS011;54448;51.472;-2.574;2022-07-29T12:06:51;9.23;;;2.22;;
67665;SDS011;54448;51.472;-2.574;2022-07-29T12:09:18;7.35;;;2.50;;
67665;SDS011;54448;51.472;-2.574;2022-07-29T12:11:43;22.50;;;2.50;;
67665;SDS011;54448;51.472;-2.574;2022-07-29T12:14:24;6.57;;;2.22;;
67665;SDS011;54448;51.472;-2.574;2022-07-29T12:16:59;6.75;;;2.38;;
67665;SDS011;54448;51.472;-2.574;2022-07-29T12:19:25;21.23;;;2.58;;
67665;SDS011;54448;51.472;-2.574;2022-07-29T12:21:53;27.95;;;2.72;;
67665;SDS011;54448;51.472;-2.574;2022-07-29T12:24:20;10.23;;;2.50;;
67665;SDS011;54448;51.472;-2.574;2022-07-29T12:26:56;6.90;;;2.30;;
67665;SDS011;54448;51.472;-2.574;2022-07-29T12:29:22;7.07;;;2.22;;
67665;SDS011;54448;51.472;-2.574;2022-07-29T12:31:52;4.95;;;2.10;;
67665;SDS011;54448;51.472;-2.574;2022-07-29T12:34:19;8.82;;;2.40;;
67665;SDS011;54448;51.472;-2.574;2022-07-29T12:36:47;6.43;;;2.05;;
67665;SDS011;54448;51.472;-2.574;2022-07-29T12:39:14;6.38;;;2.15;;
67665;SDS011;54448;51.472;-2.574;2022-07-29T12:41:40;6.18;;;2.20;;
67665;SDS011;54448;51.472;-2.574;2022-07-29T12:44:06;10.32;;;2.47;;
67665;SDS011;54448;51.472;-2.574;2022-07-29T12:46:31;10.95;;;2.40;;
67665;SDS011;54448;51.472;-2.574;2022-07-29T12:48:57;5.88;;;2.17;;
67665;SDS011;54448;51.472;-2.574;2022-07-29T12:51:39;8.52;;;2.65;;
67665;SDS011;54448;51.472;-2.574;2022-07-29T12:56:39;10.35;;;2.33;;
67665;SDS011;54448;51.472;-2.574;2022-07-29T13:01:42;8.68;;;2.25;;
67665;SDS011;54448;51.472;-2.574;2022-07-29T13:04:08;7.68;;;2.30;;
67665;SDS011;54448;51.472;-2.574;2022-07-29T13:14:04;6.60;;;1.95;;
67665;SDS011;54448;51.472;-2.574;2022-07-29T13:16:30;9.38;;;2.50;;
67665;SDS011;54448;51.472;-2.574;2022-07-29T13:19:09;8.77;;;2.08;;
67665;SDS011;54448;51.472;-2.574;2022-07-29T13:21:36;8.30;;;2.67;;
67665;SDS011;54448;51.472;-2.574;2022-07-29T13:24:03;8.68;;;2.45;;
67665;SDS011;54448;51.472;-2.574;2022-07-29T13:26:30;10.25;;;2.30;;
67665;SDS011;54448;51.472;-2.574;2022-07-29T13:28:56;14.55;;;2.40;;
67665;SDS011;54448;51.472;-2.574;2022-07-29T13:31:22;7.18;;;2.10;;
67665;SDS011;54448;51.472;-2.574;2022-07-29T13:33:47;10.25;;;3.17;;
67665;SDS011;54448;51.472;-2.574;2022-07-29T13:36:13;15.85;;;2.35;;
67665;SDS011;54448;51.472;-2.574;2022-07-29T13:38:38;7.13;;;2.40;;
67665;SDS011;54448;51.472;-2.574;2022-07-29T13:41:04;10.82;;;2.30;;
67665;SDS011;54448;51.472;-2.574;2022-07-29T13:43:29;11.65;;;2.22;;
67665;SDS011;54448;51.472;-2.574;2022-07-29T13:45:55;20.67;;;2.90;;
67665;SDS011;54448;51.472;-2.574;2022-07-29T13:48:21;7.88;;;2.40;;
67665;SDS011;54448;51.472;-2.574;2022-07-29T13:50:46;15.45;;;2.50;;
67665;SDS011;54448;51.472;-2.574;2022-07-29T13:53:13;6.25;;;2.40;;
67665;SDS011;54448;51.472;-2.574;2022-07-29T13:55:38;8.05;;;2.15;;
67665;SDS011;54448;51.472;-2.574;2022-07-29T13:58:04;7.90;;;2.38;;
67665;SDS011;54448;51.472;-2.574;2022-07-29T14:00:29;10.98;;;2.28;;
67665;SDS011;54448;51.472;-2.574;2022-07-29T14:02:55;6.95;;;2.05;;
67665;SDS011;54448;51.472;-2.574;2022-07-29T14:05:20;7.85;;;2.90;;
67665;SDS011;54448;51.472;-2.574;2022-07-29T14:07:45;8.07;;;2.50;;
67665;SDS011;54448;51.472;-2.574;2022-07-29T14:10:11;13.07;;;2.80;;
67665;SDS011;54448;51.472;-2.574;2022-07-29T14:12:37;9.02;;;2.20;;
67665;SDS011;54448;51.472;-2.574;2022-07-29T14:15:03;11.73;;;2.78;;
67665;SDS011;54448;51.472;-2.574;2022-07-29T14:17:28;13.48;;;2.25;;
67665;SDS011;54448;51.472;-2.574;2022-07-29T14:19:54;7.40;;;1.90;;
67665;SDS011;54448;51.472;-2.574;2022-07-29T14:22:19;27.75;;;3.55;;
67665;SDS011;54448;51.472;-2.574;2022-07-29T14:24:45;10.85;;;2.22;;
67665;SDS011;54448;51.472;-2.574;2022-07-29T14:27:10;8.75;;;2.13;;
67665;SDS011;54448;51.472;-2.574;2022-07-29T14:29:36;7.65;;;2.60;;
67665;SDS011;54448;51.472;-2.574;2022-07-29T14:32:02;4.55;;;1.95;;
67665;SDS011;54448;51.472;-2.574;2022-07-29T14:34:30;7.20;;;2.45;;
67665;SDS011;54448;51.472;-2.574;2022-07-29T14:36:56;9.45;;;3.17;;
67665;SDS011;54448;51.472;-2.574;2022-07-29T14:39:22;13.57;;;2.60;;
67665;SDS011;54448;51.472;-2.574;2022-07-29T14:41:48;13.88;;;3.17;;
67665;SDS011;54448;51.472;-2.574;2022-07-29T14:44:14;7.97;;;2.92;;
67665;SDS011;54448;51.472;-2.574;2022-07-29T14:46:40;5.35;;;2.50;;
67665;SDS011;54448;51.472;-2.574;2022-07-29T14:49:05;7.03;;;2.40;;
67665;SDS011;54448;51.472;-2.574;2022-07-29T14:51:31;8.27;;;2.83;;
67665;SDS011;54448;51.472;-2.574;2022-07-29T14:53:57;8.23;;;2.88;;
67665;SDS011;54448;51.472;-2.574;2022-07-29T14:56:22;10.05;;;3.67;;
67665;SDS011;54448;51.472;-2.574;2022-07-29T14:58:48;8.52;;;2.90;;
67665;SDS011;54448;51.472;-2.574;2022-07-29T15:01:14;12.68;;;4.25;;
67665;SDS011;54448;51.472;-2.574;2022-07-29T15:03:39;9.48;;;3.45;;
67665;SDS011;54448;51.472;-2.574;2022-07-29T15:06:05;10.35;;;4.18;;
67665;SDS011;54448;51.472;-2.574;2022-07-29T15:08:30;10.52;;;3.67;;
67665;SDS011;54448;51.472;-2.574;2022-07-29T15:10:56;6.88;;;2.88;;
67665;SDS011;54448;51.472;-2.574;2022-07-29T15:13:24;10.52;;;2.70;;
67665;SDS011;54448;51.472;-2.574;2022-07-29T15:15:50;5.85;;;2.72;;